sensor_id;sensor_type;location;lat;lon;timestamp;P1;durP1;ratioP1;P2;durP2;ratioP2
39022;SDS011;25908;51.984;5.928;2023-03-01T00:00:18;7.18;;;3.45;;
39022;SDS011;25908;51.984;5.928;2023-03-01T00:02:44;5.38;;;3.10;;
39022;SDS011;25908;51.984;5.928;2023-03-01T00:05:10;6.25;;;3.53;;
39022;SDS011;25908;51.984;5.928;2023-03-01T00:07:36;6.50;;;3.47;;
39022;SDS011;25908;51.984;5.928;2023-03-01T00:10:01;8.10;;;3.70;;
39022;SDS011;25908;51.984;5.928;2023-03-01T00:12:27;9.32;;;4.10;;
39022;SDS011;25908;51.984;5.928;2023-03-01T00:14:53;5.70;;;3.15;;
39022;SDS011;25908;51.984;5.928;2023-03-01T00:17:18;6.32;;;3.47;;
39022;SDS011;25908;51.984;5.928;2023-03-01T00:19:44;7.07;;;3.47;;
39022;SDS011;25908;51.984;5.928;2023-03-01T00:22:09;5.05;;;3.10;;
39022;SDS011;25908;51.984;5.928;2023-03-01T00:24:35;7.35;;;3.45;;
39022;SDS011;25908;51.984;5.928;2023-03-01T00:27:00;5.72;;;3.10;;
39022;SDS011;25908;51.984;5.928;2023-03-01T00:29:26;5.60;;;3.53;;
39022;SDS011;25908;51.984;5.928;2023-03-01T00:31:52;5.53;;;3.20;;
39022;SDS011;25908;51.984;5.928;2023-03-01T00:34:18;7.10;;;3.78;;
39022;SDS011;25908;51.984;5.928;2023-03-01T00:36:43;7.85;;;4.07;;
39022;SDS011;25908;51.984;5.928;2023-03-01T00:39:10;4.85;;;3.10;;
39022;SDS011;25908;51.984;5.928;2023-03-01T00:41:38;6.65;;;3.25;;
39022;SDS011;25908;51.984;5.928;2023-03-01T00:44:05;7.00;;;3.38;;
39022;SDS011;25908;51.984;5.928;2023-03-01T00:46:31;7.85;;;3.88;;
39022;SDS011;25908;51.984;5.928;2023-03-01T00:48:57;6.00;;;3.60;;
39022;SDS011;25908;51.984;5.928;2023-03-01T00:51:24;6.38;;;3.10;;
39022;SDS011;25908;51.984;5.928;2023-03-01T00:53:51;5.47;;;3.60;;
39022;SDS011;25908;51.984;5.928;2023-03-01T00:56:18;5.65;;;3.90;;
39022;SDS011;25908;51.984;5.928;2023-03-01T00:58:44;9.00;;;4.18;;
39022;SDS011;25908;51.984;5.928;2023-03-01T01:01:11;4.97;;;3.13;;
39022;SDS011;25908;51.984;5.928;2023-03-01T01:03:43;7.32;;;4.45;;
39022;SDS011;25908;51.984;5.928;2023-03-01T01:06:16;5.30;;;3.60;;
39022;SDS011;25908;51.984;5.928;2023-03-01T01:08:43;7.85;;;4.65;;
39022;SDS011;25908;51.984;5.928;2023-03-01T01:11:11;6.60;;;4.25;;
39022;SDS011;25908;51.984;5.928;2023-03-01T01:13:37;18.13;;;4.93;;
39022;SDS011;25908;51.984;5.928;2023-03-01T01:16:04;7.60;;;4.45;;
39022;SDS011;25908;51.984;5.928;2023-03-01T01:18:29;9.52;;;5.53;;
39022;SDS011;25908;51.984;5.928;2023-03-01T01:20:55;6.85;;;4.47;;
39022;SDS011;25908;51.984;5.928;2023-03-01T01:23:21;9.05;;;4.38;;
39022;SDS011;25908;51.984;5.928;2023-03-01T01:25:46;7.25;;;4.40;;
39022;SDS011;25908;51.984;5.928;2023-03-01T01:28:12;10.48;;;5.60;;
39022;SDS011;25908;51.984;5.928;2023-03-01T01:30:37;9.05;;;5.75;;
39022;SDS011;25908;51.984;5.928;2023-03-01T01:33:03;8.65;;;5.38;;
39022;SDS011;25908;51.984;5.928;2023-03-01T01:35:28;7.35;;;4.82;;
39022;SDS011;25908;51.984;5.928;2023-03-01T01:37:54;8.50;;;5.47;;
39022;SDS011;25908;51.984;5.928;2023-03-01T01:40:20;9.07;;;5.15;;
39022;SDS011;25908;51.984;5.928;2023-03-01T01:42:45;8.82;;;5.25;;
39022;SDS011;25908;51.984;5.928;2023-03-01T01:48:00;12.25;;;6.55;;
39022;SDS011;25908;51.984;5.928;2023-03-01T01:50:31;10.48;;;6.18;;
39022;SDS011;25908;51.984;5.928;2023-03-01T01:53:10;9.05;;;5.95;;
39022;SDS011;25908;51.984;5.928;2023-03-01T01:55:41;11.60;;;6.13;;
39022;SDS011;25908;51.984;5.928;2023-03-01T01:58:10;9.23;;;5.85;;
39022;SDS011;25908;51.984;5.928;2023-03-01T02:00:39;8.15;;;5.35;;
39022;SDS011;25908;51.984;5.928;2023-03-01T02:03:06;8.82;;;5.88;;
39022;SDS011;25908;51.984;5.928;2023-03-01T02:05:38;9.30;;;5.68;;
39022;SDS011;25908;51.984;5.928;2023-03-01T02:08:12;10.05;;;5.30;;
39022;SDS011;25908;51.984;5.928;2023-03-01T02:10:39;8.30;;;6.07;;
39022;SDS011;25908;51.984;5.928;2023-03-01T02:13:06;7.35;;;5.18;;
39022;SDS011;25908;51.984;5.928;2023-03-01T02:15:33;8.80;;;5.50;;
39022;SDS011;25908;51.984;5.928;2023-03-01T02:18:00;8.25;;;5.63;;
39022;SDS011;25908;51.984;5.928;2023-03-01T02:23:24;9.25;;;5.40;;
39022;SDS011;25908;51.984;5.928;2023-03-01T02:25:58;9.40;;;5.22;;
39022;SDS011;25908;51.984;5.928;2023-03-01T02:28:33;8.00;;;5.38;;
39022;SDS011;25908;51.984;5.928;2023-03-01T02:31:05;8.88;;;4.93;;
39022;SDS011;25908;51.984;5.928;2023-03-01T02:33:50;7.70;;;5.10;;
39022;SDS011;25908;51.984;5.928;2023-03-01T02:36:29;8.88;;;5.65;;
39022;SDS011;25908;51.984;5.928;2023-03-01T02:38:59;7.82;;;5.22;;
39022;SDS011;25908;51.984;5.928;2023-03-01T02:41:28;8.38;;;4.88;;
39022;SDS011;25908;51.984;5.928;2023-03-01T02:44:00;10.48;;;5.38;;
39022;SDS011;25908;51.984;5.928;2023-03-01T02:46:26;7.80;;;4.90;;
39022;SDS011;25908;51.984;5.928;2023-03-01T02:48:53;10.82;;;5.28;;
39022;SDS011;25908;51.984;5.928;2023-03-01T02:54:07;7.82;;;5.18;;
39022;SDS011;25908;51.984;5.928;2023-03-01T02:56:35;8.25;;;4.90;;
39022;SDS011;25908;51.984;5.928;2023-03-01T02:59:00;7.53;;;4.68;;
39022;SDS011;25908;51.984;5.928;2023-03-01T03:01:27;13.98;;;5.57;;
39022;SDS011;25908;51.984;5.928;2023-03-01T03:04:03;9.45;;;5.43;;
39022;SDS011;25908;51.984;5.928;2023-03-01T03:06:34;8.45;;;4.88;;
39022;SDS011;25908;51.984;5.928;2023-03-01T03:09:00;8.27;;;4.78;;
39022;SDS011;25908;51.984;5.928;2023-03-01T03:11:27;7.72;;;4.70;;
39022;SDS011;25908;51.984;5.928;2023-03-01T03:13:53;9.60;;;5.07;;
39022;SDS011;25908;51.984;5.928;2023-03-01T03:16:19;8.10;;;5.05;;
39022;SDS011;25908;51.984;5.928;2023-03-01T03:18:45;7.88;;;4.95;;
39022;SDS011;25908;51.984;5.928;2023-03-01T03:21:12;6.90;;;4.22;;
39022;SDS011;25908;51.984;5.928;2023-03-01T03:23:38;8.07;;;5.07;;
39022;SDS011;25908;51.984;5.928;2023-03-01T03:26:04;8.88;;;4.82;;
39022;SDS011;25908;51.984;5.928;2023-03-01T03:28:30;7.90;;;5.00;;
39022;SDS011;25908;51.984;5.928;2023-03-01T03:30:57;8.45;;;4.80;;
39022;SDS011;25908;51.984;5.928;2023-03-01T03:33:23;8.82;;;5.32;;
39022;SDS011;25908;51.984;5.928;2023-03-01T03:35:49;8.65;;;5.70;;
39022;SDS011;25908;51.984;5.928;2023-03-01T03:38:16;8.05;;;5.00;;
39022;SDS011;25908;51.984;5.928;2023-03-01T03:40:51;7.70;;;5.00;;
39022;SDS011;25908;51.984;5.928;2023-03-01T03:43:27;9.27;;;5.65;;
39022;SDS011;25908;51.984;5.928;2023-03-01T03:45:53;7.85;;;4.93;;
39022;SDS011;25908;51.984;5.928;2023-03-01T03:48:19;8.00;;;5.25;;
39022;SDS011;25908;51.984;5.928;2023-03-01T03:50:52;7.13;;;4.85;;
39022;SDS011;25908;51.984;5.928;2023-03-01T03:53:20;9.05;;;5.45;;
39022;SDS011;25908;51.984;5.928;2023-03-01T03:55:47;9.27;;;4.93;;
39022;SDS011;25908;51.984;5.928;2023-03-01T03:58:14;8.73;;;4.95;;
39022;SDS011;25908;51.984;5.928;2023-03-01T04:00:43;9.15;;;5.47;;
39022;SDS011;25908;51.984;5.928;2023-03-01T04:03:10;10.85;;;5.95;;
39022;SDS011;25908;51.984;5.928;2023-03-01T04:05:38;8.75;;;5.50;;
39022;SDS011;25908;51.984;5.928;2023-03-01T04:08:04;9.65;;;4.93;;
39022;SDS011;25908;51.984;5.928;2023-03-01T04:10:35;8.07;;;5.57;;
39022;SDS011;25908;51.984;5.928;2023-03-01T04:13:05;7.80;;;4.82;;
39022;SDS011;25908;51.984;5.928;2023-03-01T04:15:32;7.65;;;4.35;;
39022;SDS011;25908;51.984;5.928;2023-03-01T04:17:59;8.75;;;5.28;;
39022;SDS011;25908;51.984;5.928;2023-03-01T04:20:26;8.75;;;4.97;;
39022;SDS011;25908;51.984;5.928;2023-03-01T04:22:59;8.73;;;4.90;;
39022;SDS011;25908;51.984;5.928;2023-03-01T04:25:42;8.70;;;5.43;;
39022;SDS011;25908;51.984;5.928;2023-03-01T04:28:18;7.90;;;5.15;;
39022;SDS011;25908;51.984;5.928;2023-03-01T04:30:44;8.75;;;5.30;;
39022;SDS011;25908;51.984;5.928;2023-03-01T04:33:10;8.38;;;4.95;;
39022;SDS011;25908;51.984;5.928;2023-03-01T04:35:36;7.10;;;4.72;;
39022;SDS011;25908;51.984;5.928;2023-03-01T04:38:03;7.68;;;4.63;;
39022;SDS011;25908;51.984;5.928;2023-03-01T04:40:30;9.82;;;4.65;;
39022;SDS011;25908;51.984;5.928;2023-03-01T04:42:56;11.20;;;4.70;;
39022;SDS011;25908;51.984;5.928;2023-03-01T04:45:22;7.38;;;4.47;;
39022;SDS011;25908;51.984;5.928;2023-03-01T04:47:47;8.35;;;5.15;;
39022;SDS011;25908;51.984;5.928;2023-03-01T04:50:14;8.63;;;4.68;;
39022;SDS011;25908;51.984;5.928;2023-03-01T04:52:42;8.20;;;4.47;;
39022;SDS011;25908;51.984;5.928;2023-03-01T04:55:08;7.80;;;4.03;;
39022;SDS011;25908;51.984;5.928;2023-03-01T04:57:34;9.02;;;4.45;;
39022;SDS011;25908;51.984;5.928;2023-03-01T05:00:00;9.23;;;4.65;;
39022;SDS011;25908;51.984;5.928;2023-03-01T05:02:26;6.43;;;3.70;;
39022;SDS011;25908;51.984;5.928;2023-03-01T05:04:51;7.43;;;4.30;;
39022;SDS011;25908;51.984;5.928;2023-03-01T05:07:17;6.57;;;3.90;;
39022;SDS011;25908;51.984;5.928;2023-03-01T05:09:47;10.23;;;4.85;;
39022;SDS011;25908;51.984;5.928;2023-03-01T05:12:13;9.27;;;4.93;;
39022;SDS011;25908;51.984;5.928;2023-03-01T05:14:39;8.57;;;4.50;;
39022;SDS011;25908;51.984;5.928;2023-03-01T05:17:06;7.25;;;4.43;;
39022;SDS011;25908;51.984;5.928;2023-03-01T05:19:32;6.72;;;4.00;;
39022;SDS011;25908;51.984;5.928;2023-03-01T05:21:58;8.00;;;4.70;;
39022;SDS011;25908;51.984;5.928;2023-03-01T05:24:27;7.25;;;4.55;;
39022;SDS011;25908;51.984;5.928;2023-03-01T05:26:53;7.43;;;4.35;;
39022;SDS011;25908;51.984;5.928;2023-03-01T05:29:23;7.90;;;4.68;;
39022;SDS011;25908;51.984;5.928;2023-03-01T05:31:56;11.23;;;5.53;;
39022;SDS011;25908;51.984;5.928;2023-03-01T05:34:27;8.30;;;5.18;;
39022;SDS011;25908;51.984;5.928;2023-03-01T05:36:55;7.32;;;4.90;;
39022;SDS011;25908;51.984;5.928;2023-03-01T05:39:22;9.73;;;5.60;;
39022;SDS011;25908;51.984;5.928;2023-03-01T05:41:51;10.00;;;4.97;;
39022;SDS011;25908;51.984;5.928;2023-03-01T05:44:21;9.15;;;5.30;;
39022;SDS011;25908;51.984;5.928;2023-03-01T05:46:47;10.25;;;5.13;;
39022;SDS011;25908;51.984;5.928;2023-03-01T05:49:13;8.52;;;5.10;;
39022;SDS011;25908;51.984;5.928;2023-03-01T05:51:39;8.45;;;4.82;;
39022;SDS011;25908;51.984;5.928;2023-03-01T05:54:06;8.77;;;4.65;;
39022;SDS011;25908;51.984;5.928;2023-03-01T05:56:35;10.90;;;4.90;;
39022;SDS011;25908;51.984;5.928;2023-03-01T05:59:02;9.27;;;4.80;;
39022;SDS011;25908;51.984;5.928;2023-03-01T06:01:30;7.35;;;4.90;;
39022;SDS011;25908;51.984;5.928;2023-03-01T06:03:56;10.73;;;5.20;;
39022;SDS011;25908;51.984;5.928;2023-03-01T06:06:22;9.13;;;4.63;;
39022;SDS011;25908;51.984;5.928;2023-03-01T06:08:47;8.25;;;4.90;;
39022;SDS011;25908;51.984;5.928;2023-03-01T06:11:13;7.70;;;4.82;;
39022;SDS011;25908;51.984;5.928;2023-03-01T06:13:40;9.77;;;5.20;;
39022;SDS011;25908;51.984;5.928;2023-03-01T06:16:09;8.23;;;5.50;;
39022;SDS011;25908;51.984;5.928;2023-03-01T06:18:35;7.93;;;5.10;;
39022;SDS011;25908;51.984;5.928;2023-03-01T06:21:01;7.68;;;4.55;;
39022;SDS011;25908;51.984;5.928;2023-03-01T06:23:27;9.77;;;5.38;;
39022;SDS011;25908;51.984;5.928;2023-03-01T06:25:53;10.40;;;5.85;;
39022;SDS011;25908;51.984;5.928;2023-03-01T06:28:19;7.50;;;4.47;;
39022;SDS011;25908;51.984;5.928;2023-03-01T06:30:44;10.65;;;5.75;;
39022;SDS011;25908;51.984;5.928;2023-03-01T06:33:10;6.68;;;4.72;;
39022;SDS011;25908;51.984;5.928;2023-03-01T06:35:36;8.07;;;5.05;;
39022;SDS011;25908;51.984;5.928;2023-03-01T06:38:02;9.32;;;5.13;;
39022;SDS011;25908;51.984;5.928;2023-03-01T06:40:29;10.35;;;5.00;;
39022;SDS011;25908;51.984;5.928;2023-03-01T06:42:56;8.13;;;4.85;;
39022;SDS011;25908;51.984;5.928;2023-03-01T06:45:21;10.02;;;5.70;;
39022;SDS011;25908;51.984;5.928;2023-03-01T06:47:47;12.55;;;7.10;;
39022;SDS011;25908;51.984;5.928;2023-03-01T06:50:13;10.88;;;5.55;;
39022;SDS011;25908;51.984;5.928;2023-03-01T06:52:40;9.35;;;5.18;;
39022;SDS011;25908;51.984;5.928;2023-03-01T06:55:05;9.32;;;5.38;;
39022;SDS011;25908;51.984;5.928;2023-03-01T06:57:31;9.25;;;5.95;;
39022;SDS011;25908;51.984;5.928;2023-03-01T06:59:57;9.05;;;5.82;;
39022;SDS011;25908;51.984;5.928;2023-03-01T07:02:23;9.45;;;5.53;;
39022;SDS011;25908;51.984;5.928;2023-03-01T07:04:49;9.82;;;5.90;;
39022;SDS011;25908;51.984;5.928;2023-03-01T07:07:15;11.93;;;5.25;;
39022;SDS011;25908;51.984;5.928;2023-03-01T07:09:43;10.05;;;5.80;;
39022;SDS011;25908;51.984;5.928;2023-03-01T07:12:09;9.38;;;5.40;;
39022;SDS011;25908;51.984;5.928;2023-03-01T07:14:35;9.75;;;5.68;;
39022;SDS011;25908;51.984;5.928;2023-03-01T07:17:00;9.65;;;5.82;;
39022;SDS011;25908;51.984;5.928;2023-03-01T07:19:26;9.63;;;5.10;;
39022;SDS011;25908;51.984;5.928;2023-03-01T07:21:52;9.82;;;5.65;;
39022;SDS011;25908;51.984;5.928;2023-03-01T07:24:17;9.23;;;5.88;;
39022;SDS011;25908;51.984;5.928;2023-03-01T07:26:43;10.48;;;5.90;;
39022;SDS011;25908;51.984;5.928;2023-03-01T07:29:09;9.23;;;5.75;;
39022;SDS011;25908;51.984;5.928;2023-03-01T07:31:36;10.23;;;5.32;;
39022;SDS011;25908;51.984;5.928;2023-03-01T07:34:01;10.73;;;6.20;;
39022;SDS011;25908;51.984;5.928;2023-03-01T07:36:27;10.13;;;6.50;;
39022;SDS011;25908;51.984;5.928;2023-03-01T07:38:53;9.82;;;5.90;;
39022;SDS011;25908;51.984;5.928;2023-03-01T07:41:20;10.50;;;6.25;;
39022;SDS011;25908;51.984;5.928;2023-03-01T07:43:46;9.60;;;5.43;;
39022;SDS011;25908;51.984;5.928;2023-03-01T07:46:11;8.00;;;5.30;;
39022;SDS011;25908;51.984;5.928;2023-03-01T07:48:37;11.10;;;6.22;;
39022;SDS011;25908;51.984;5.928;2023-03-01T07:51:04;10.30;;;6.22;;
39022;SDS011;25908;51.984;5.928;2023-03-01T07:53:31;11.90;;;5.45;;
39022;SDS011;25908;51.984;5.928;2023-03-01T07:56:05;8.48;;;5.30;;
39022;SDS011;25908;51.984;5.928;2023-03-01T07:58:34;8.90;;;5.03;;
39022;SDS011;25908;51.984;5.928;2023-03-01T08:01:01;8.27;;;5.25;;
39022;SDS011;25908;51.984;5.928;2023-03-01T08:03:31;9.48;;;5.53;;
39022;SDS011;25908;51.984;5.928;2023-03-01T08:05:58;7.72;;;4.88;;
39022;SDS011;25908;51.984;5.928;2023-03-01T08:08:25;10.43;;;5.55;;
39022;SDS011;25908;51.984;5.928;2023-03-01T08:10:51;7.88;;;5.32;;
39022;SDS011;25908;51.984;5.928;2023-03-01T08:13:16;8.32;;;5.35;;
39022;SDS011;25908;51.984;5.928;2023-03-01T08:15:47;9.05;;;5.18;;
39022;SDS011;25908;51.984;5.928;2023-03-01T08:18:13;10.38;;;5.68;;
39022;SDS011;25908;51.984;5.928;2023-03-01T08:20:39;9.00;;;5.03;;
39022;SDS011;25908;51.984;5.928;2023-03-01T08:23:04;8.90;;;5.25;;
39022;SDS011;25908;51.984;5.928;2023-03-01T08:25:30;9.07;;;5.38;;
39022;SDS011;25908;51.984;5.928;2023-03-01T08:27:55;9.75;;;5.55;;
39022;SDS011;25908;51.984;5.928;2023-03-01T08:30:21;9.80;;;5.10;;
39022;SDS011;25908;51.984;5.928;2023-03-01T08:32:48;7.45;;;4.82;;
39022;SDS011;25908;51.984;5.928;2023-03-01T08:35:14;8.68;;;5.13;;
39022;SDS011;25908;51.984;5.928;2023-03-01T08:37:40;8.25;;;5.00;;
39022;SDS011;25908;51.984;5.928;2023-03-01T08:40:05;10.65;;;5.10;;
39022;SDS011;25908;51.984;5.928;2023-03-01T08:42:32;8.40;;;4.95;;
39022;SDS011;25908;51.984;5.928;2023-03-01T08:44:58;7.85;;;4.93;;
39022;SDS011;25908;51.984;5.928;2023-03-01T08:47:23;10.82;;;5.82;;
39022;SDS011;25908;51.984;5.928;2023-03-01T08:49:49;6.60;;;4.70;;
39022;SDS011;25908;51.984;5.928;2023-03-01T08:52:15;8.10;;;5.15;;
39022;SDS011;25908;51.984;5.928;2023-03-01T08:54:41;7.63;;;4.65;;
39022;SDS011;25908;51.984;5.928;2023-03-01T08:57:06;8.40;;;5.28;;
39022;SDS011;25908;51.984;5.928;2023-03-01T08:59:32;8.32;;;4.85;;
39022;SDS011;25908;51.984;5.928;2023-03-01T09:02:02;7.57;;;4.70;;
39022;SDS011;25908;51.984;5.928;2023-03-01T09:04:28;7.88;;;4.93;;
39022;SDS011;25908;51.984;5.928;2023-03-01T09:06:54;7.80;;;5.05;;
39022;SDS011;25908;51.984;5.928;2023-03-01T09:09:20;8.15;;;4.72;;
39022;SDS011;25908;51.984;5.928;2023-03-01T09:11:46;7.28;;;4.80;;
39022;SDS011;25908;51.984;5.928;2023-03-01T09:14:14;9.65;;;4.93;;
39022;SDS011;25908;51.984;5.928;2023-03-01T09:16:40;8.55;;;4.35;;
39022;SDS011;25908;51.984;5.928;2023-03-01T09:19:05;8.35;;;4.20;;
39022;SDS011;25908;51.984;5.928;2023-03-01T09:21:31;7.30;;;4.57;;
39022;SDS011;25908;51.984;5.928;2023-03-01T09:23:57;10.27;;;4.78;;
39022;SDS011;25908;51.984;5.928;2023-03-01T09:26:23;8.98;;;4.40;;
39022;SDS011;25908;51.984;5.928;2023-03-01T09:28:50;6.93;;;4.68;;
39022;SDS011;25908;51.984;5.928;2023-03-01T09:31:18;7.45;;;4.30;;
39022;SDS011;25908;51.984;5.928;2023-03-01T09:33:45;6.25;;;4.22;;
39022;SDS011;25908;51.984;5.928;2023-03-01T09:36:14;11.25;;;6.82;;
39022;SDS011;25908;51.984;5.928;2023-03-01T09:38:44;12.65;;;7.07;;
39022;SDS011;25908;51.984;5.928;2023-03-01T09:41:10;15.73;;;9.90;;
39022;SDS011;25908;51.984;5.928;2023-03-01T09:43:47;10.07;;;6.05;;
39022;SDS011;25908;51.984;5.928;2023-03-01T09:46:19;9.88;;;5.35;;
39022;SDS011;25908;51.984;5.928;2023-03-01T09:48:49;10.45;;;6.18;;
39022;SDS011;25908;51.984;5.928;2023-03-01T09:51:26;8.63;;;5.43;;
39022;SDS011;25908;51.984;5.928;2023-03-01T09:53:54;11.85;;;6.72;;
39022;SDS011;25908;51.984;5.928;2023-03-01T09:56:24;9.68;;;5.72;;
39022;SDS011;25908;51.984;5.928;2023-03-01T10:09:39;11.93;;;8.13;;
39022;SDS011;25908;51.984;5.928;2023-03-01T10:12:31;9.88;;;7.03;;
39022;SDS011;25908;51.984;5.928;2023-03-01T10:15:15;12.00;;;7.63;;
39022;SDS011;25908;51.984;5.928;2023-03-01T10:17:55;10.25;;;7.50;;
39022;SDS011;25908;51.984;5.928;2023-03-01T10:20:38;10.93;;;7.30;;
39022;SDS011;25908;51.984;5.928;2023-03-01T10:23:10;11.90;;;7.63;;
39022;SDS011;25908;51.984;5.928;2023-03-01T10:25:41;10.32;;;6.10;;
39022;SDS011;25908;51.984;5.928;2023-03-01T10:30:42;12.23;;;6.20;;
39022;SDS011;25908;51.984;5.928;2023-03-01T10:33:13;10.05;;;6.78;;
39022;SDS011;25908;51.984;5.928;2023-03-01T10:35:51;9.25;;;5.60;;
39022;SDS011;25908;51.984;5.928;2023-03-01T10:38:17;8.23;;;5.35;;
39022;SDS011;25908;51.984;5.928;2023-03-01T10:43:43;7.95;;;4.72;;
39022;SDS011;25908;51.984;5.928;2023-03-01T10:49:07;8.88;;;5.32;;
39022;SDS011;25908;51.984;5.928;2023-03-01T10:51:41;10.02;;;5.20;;
39022;SDS011;25908;51.984;5.928;2023-03-01T10:54:29;11.88;;;5.20;;
39022;SDS011;25908;51.984;5.928;2023-03-01T10:57:00;10.27;;;5.25;;
39022;SDS011;25908;51.984;5.928;2023-03-01T10:59:30;8.88;;;5.95;;
39022;SDS011;25908;51.984;5.928;2023-03-01T11:02:01;9.32;;;4.95;;
39022;SDS011;25908;51.984;5.928;2023-03-01T11:07:53;7.93;;;4.53;;
39022;SDS011;25908;51.984;5.928;2023-03-01T11:10:27;7.65;;;4.40;;
39022;SDS011;25908;51.984;5.928;2023-03-01T11:13:05;8.10;;;4.70;;
39022;SDS011;25908;51.984;5.928;2023-03-01T11:15:42;9.63;;;4.68;;
39022;SDS011;25908;51.984;5.928;2023-03-01T11:18:21;8.88;;;5.13;;
39022;SDS011;25908;51.984;5.928;2023-03-01T11:20:48;8.23;;;4.57;;
39022;SDS011;25908;51.984;5.928;2023-03-01T11:23:18;9.07;;;4.50;;
39022;SDS011;25908;51.984;5.928;2023-03-01T11:26:01;7.90;;;4.53;;
39022;SDS011;25908;51.984;5.928;2023-03-01T11:28:31;7.80;;;4.85;;
39022;SDS011;25908;51.984;5.928;2023-03-01T11:31:03;8.25;;;5.10;;
39022;SDS011;25908;51.984;5.928;2023-03-01T11:38:41;9.13;;;5.53;;
39022;SDS011;25908;51.984;5.928;2023-03-01T11:43:49;10.05;;;5.10;;
39022;SDS011;25908;51.984;5.928;2023-03-01T11:54:33;11.05;;;5.85;;
39022;SDS011;25908;51.984;5.928;2023-03-01T12:03:11;7.53;;;4.90;;
39022;SDS011;25908;51.984;5.928;2023-03-01T12:11:54;7.95;;;5.07;;
39022;SDS011;25908;51.984;5.928;2023-03-01T12:20:11;9.40;;;5.47;;
39022;SDS011;25908;51.984;5.928;2023-03-01T12:23:01;8.68;;;5.20;;
39022;SDS011;25908;51.984;5.928;2023-03-01T12:34:24;10.43;;;5.32;;
39022;SDS011;25908;51.984;5.928;2023-03-01T12:42:49;6.85;;;4.40;;
39022;SDS011;25908;51.984;5.928;2023-03-01T12:48:38;7.28;;;4.15;;
39022;SDS011;25908;51.984;5.928;2023-03-01T12:51:14;8.07;;;4.72;;
39022;SDS011;25908;51.984;5.928;2023-03-01T12:53:45;10.20;;;4.90;;
39022;SDS011;25908;51.984;5.928;2023-03-01T12:56:17;7.60;;;4.75;;
39022;SDS011;25908;51.984;5.928;2023-03-01T13:17:49;8.25;;;5.10;;
39022;SDS011;25908;51.984;5.928;2023-03-01T13:20:18;9.35;;;4.72;;
39022;SDS011;25908;51.984;5.928;2023-03-01T13:22:46;8.48;;;4.38;;
39022;SDS011;25908;51.984;5.928;2023-03-01T13:25:14;9.75;;;4.47;;
39022;SDS011;25908;51.984;5.928;2023-03-01T13:27:45;7.60;;;4.53;;
39022;SDS011;25908;51.984;5.928;2023-03-01T13:33:32;8.25;;;4.63;;
39022;SDS011;25908;51.984;5.928;2023-03-01T13:35:50;6.78;;;4.68;;
39022;SDS011;25908;51.984;5.928;2023-03-01T13:41:02;8.95;;;4.45;;
39022;SDS011;25908;51.984;5.928;2023-03-01T13:43:30;7.40;;;4.30;;
39022;SDS011;25908;51.984;5.928;2023-03-01T13:45:59;7.53;;;4.27;;
39022;SDS011;25908;51.984;5.928;2023-03-01T13:48:29;6.80;;;4.30;;
39022;SDS011;25908;51.984;5.928;2023-03-01T13:51:00;9.32;;;4.40;;
39022;SDS011;25908;51.984;5.928;2023-03-01T13:53:33;6.53;;;4.18;;
39022;SDS011;25908;51.984;5.928;2023-03-01T13:56:03;7.15;;;4.22;;
39022;SDS011;25908;51.984;5.928;2023-03-01T13:58:46;7.68;;;4.50;;
39022;SDS011;25908;51.984;5.928;2023-03-01T14:01:21;7.82;;;4.63;;
39022;SDS011;25908;51.984;5.928;2023-03-01T14:03:58;7.00;;;4.35;;
39022;SDS011;25908;51.984;5.928;2023-03-01T14:06:25;8.73;;;5.15;;
39022;SDS011;25908;51.984;5.928;2023-03-01T14:09:00;8.05;;;4.82;;
39022;SDS011;25908;51.984;5.928;2023-03-01T14:19:57;8.77;;;4.78;;
39022;SDS011;25908;51.984;5.928;2023-03-01T14:22:27;8.82;;;4.70;;
39022;SDS011;25908;51.984;5.928;2023-03-01T14:24:59;7.20;;;4.57;;
39022;SDS011;25908;51.984;5.928;2023-03-01T14:27:28;8.00;;;4.90;;
39022;SDS011;25908;51.984;5.928;2023-03-01T14:30:01;8.55;;;4.57;;
39022;SDS011;25908;51.984;5.928;2023-03-01T14:32:35;10.90;;;5.43;;
39022;SDS011;25908;51.984;5.928;2023-03-01T14:35:00;7.80;;;4.50;;
39022;SDS011;25908;51.984;5.928;2023-03-01T14:37:28;7.72;;;4.70;;
39022;SDS011;25908;51.984;5.928;2023-03-01T14:39:56;7.68;;;4.82;;
39022;SDS011;25908;51.984;5.928;2023-03-01T14:42:24;10.30;;;5.32;;
39022;SDS011;25908;51.984;5.928;2023-03-01T14:44:54;9.30;;;4.90;;
39022;SDS011;25908;51.984;5.928;2023-03-01T14:47:28;7.97;;;5.18;;
39022;SDS011;25908;51.984;5.928;2023-03-01T14:49:58;8.68;;;4.40;;
39022;SDS011;25908;51.984;5.928;2023-03-01T14:52:36;7.85;;;4.45;;
39022;SDS011;25908;51.984;5.928;2023-03-01T14:55:12;6.45;;;4.40;;
39022;SDS011;25908;51.984;5.928;2023-03-01T14:57:43;10.02;;;5.03;;
39022;SDS011;25908;51.984;5.928;2023-03-01T15:00:11;10.15;;;4.97;;
39022;SDS011;25908;51.984;5.928;2023-03-01T15:02:53;7.65;;;4.35;;
39022;SDS011;25908;51.984;5.928;2023-03-01T15:05:23;7.88;;;4.55;;
39022;SDS011;25908;51.984;5.928;2023-03-01T15:07:55;8.50;;;4.72;;
39022;SDS011;25908;51.984;5.928;2023-03-01T15:10:24;8.07;;;4.95;;
39022;SDS011;25908;51.984;5.928;2023-03-01T15:12:54;7.78;;;4.38;;
39022;SDS011;25908;51.984;5.928;2023-03-01T15:17:53;8.77;;;4.43;;
39022;SDS011;25908;51.984;5.928;2023-03-01T15:20:22;6.78;;;4.22;;
39022;SDS011;25908;51.984;5.928;2023-03-01T15:22:52;10.15;;;4.97;;
39022;SDS011;25908;51.984;5.928;2023-03-01T15:25:19;9.20;;;4.38;;
39022;SDS011;25908;51.984;5.928;2023-03-01T15:27:48;7.35;;;4.28;;
39022;SDS011;25908;51.984;5.928;2023-03-01T15:30:20;8.50;;;4.60;;
39022;SDS011;25908;51.984;5.928;2023-03-01T15:35:54;6.25;;;3.92;;
39022;SDS011;25908;51.984;5.928;2023-03-01T15:41:03;6.80;;;3.72;;
39022;SDS011;25908;51.984;5.928;2023-03-01T15:43:45;7.15;;;4.10;;
39022;SDS011;25908;51.984;5.928;2023-03-01T15:49:01;5.78;;;3.60;;
39022;SDS011;25908;51.984;5.928;2023-03-01T15:51:30;5.28;;;3.22;;
39022;SDS011;25908;51.984;5.928;2023-03-01T15:53:58;5.90;;;3.40;;
39022;SDS011;25908;51.984;5.928;2023-03-01T15:56:26;6.13;;;3.63;;
39022;SDS011;25908;51.984;5.928;2023-03-01T15:58:52;8.45;;;4.50;;
39022;SDS011;25908;51.984;5.928;2023-03-01T16:01:17;6.45;;;3.40;;
39022;SDS011;25908;51.984;5.928;2023-03-01T16:03:43;7.03;;;3.80;;
39022;SDS011;25908;51.984;5.928;2023-03-01T16:06:10;6.25;;;3.42;;
39022;SDS011;25908;51.984;5.928;2023-03-01T16:08:36;7.50;;;3.58;;
39022;SDS011;25908;51.984;5.928;2023-03-01T16:11:04;6.75;;;4.00;;
39022;SDS011;25908;51.984;5.928;2023-03-01T16:13:33;6.47;;;3.80;;
39022;SDS011;25908;51.984;5.928;2023-03-01T16:15:59;7.45;;;3.70;;
39022;SDS011;25908;51.984;5.928;2023-03-01T16:18:25;8.10;;;4.63;;
39022;SDS011;25908;51.984;5.928;2023-03-01T16:20:50;6.45;;;3.88;;
39022;SDS011;25908;51.984;5.928;2023-03-01T16:23:16;6.63;;;4.03;;
39022;SDS011;25908;51.984;5.928;2023-03-01T16:25:41;8.32;;;4.13;;
39022;SDS011;25908;51.984;5.928;2023-03-01T16:28:07;8.18;;;3.60;;
39022;SDS011;25908;51.984;5.928;2023-03-01T16:30:38;8.23;;;4.20;;
39022;SDS011;25908;51.984;5.928;2023-03-01T16:33:04;18.13;;;4.20;;
39022;SDS011;25908;51.984;5.928;2023-03-01T16:35:32;7.70;;;3.83;;
39022;SDS011;25908;51.984;5.928;2023-03-01T16:37:59;8.57;;;4.35;;
39022;SDS011;25908;51.984;5.928;2023-03-01T16:40:26;6.43;;;3.95;;
39022;SDS011;25908;51.984;5.928;2023-03-01T16:42:53;6.65;;;3.40;;
39022;SDS011;25908;51.984;5.928;2023-03-01T16:47:50;19.00;;;11.43;;
39022;SDS011;25908;51.984;5.928;2023-03-01T16:50:16;12.35;;;7.25;;
39022;SDS011;25908;51.984;5.928;2023-03-01T16:52:41;7.00;;;4.70;;
39022;SDS011;25908;51.984;5.928;2023-03-01T16:55:08;6.85;;;4.53;;
39022;SDS011;25908;51.984;5.928;2023-03-01T16:57:34;5.30;;;3.15;;
39022;SDS011;25908;51.984;5.928;2023-03-01T17:00:07;5.40;;;3.50;;
39022;SDS011;25908;51.984;5.928;2023-03-01T17:02:37;6.13;;;2.95;;